createdAt,value
2023-05-06T00:00:28.632Z,26.10
2023-05-06T00:01:28.638Z,25.00
2023-05-06T00:02:28.753Z,25.90
2023-05-06T00:03:28.883Z,26.72
2023-05-06T00:04:28.722Z,25.47
2023-05-06T00:05:28.782Z,26.36
2023-05-06T00:06:28.818Z,26.24
2023-05-06T00:07:29.257Z,25.70
2023-05-06T00:08:28.811Z,25.92
2023-05-06T00:09:28.832Z,26.18
2023-05-06T00:10:28.906Z,25.96
2023-05-06T00:11:28.876Z,25.78
2023-05-06T00:12:29.266Z,25.13
2023-05-06T00:13:28.933Z,26.11
2023-05-06T00:14:28.943Z,25.84
2023-05-06T00:15:30.184Z,25.63
2023-05-06T00:16:29.021Z,26.67
2023-05-06T00:17:29.015Z,26.20
2023-05-06T00:18:28.959Z,27.27
2023-05-06T00:19:28.952Z,25.98
2023-05-06T00:20:28.932Z,25.94
2023-05-06T00:21:28.930Z,26.26
2023-05-06T00:22:29.012Z,26.44
2023-05-06T00:23:28.950Z,26.03
2023-05-06T00:24:28.895Z,25.23
2023-05-06T00:25:28.903Z,25.59
2023-05-06T00:26:28.859Z,26.23
2023-05-06T00:27:28.938Z,25.90
2023-05-06T00:28:28.875Z,25.78
2023-05-06T00:29:28.880Z,25.46
2023-05-06T00:30:28.836Z,26.21
2023-05-06T00:31:28.876Z,25.74
2023-05-06T00:32:28.893Z,25.51
2023-05-06T00:33:28.862Z,25.36
2023-05-06T00:34:28.870Z,25.00
2023-05-06T00:35:28.831Z,25.91
2023-05-06T00:36:28.794Z,25.67
2023-05-06T00:37:28.826Z,27.03
2023-05-06T00:38:28.855Z,26.38
2023-05-06T00:39:28.806Z,26.64
2023-05-06T00:40:28.767Z,25.89
2023-05-06T00:41:28.762Z,25.62
2023-05-06T00:42:28.768Z,25.32
2023-05-06T00:43:28.768Z,26.10
2023-05-06T00:44:28.756Z,25.90
2023-05-06T00:45:28.728Z,26.01
2023-05-06T00:46:28.731Z,26.28
2023-05-06T00:47:28.741Z,25.14
2023-05-06T00:48:28.864Z,25.58
2023-05-06T00:49:28.686Z,25.51
2023-05-06T00:50:28.719Z,26.34
2023-05-06T00:51:28.669Z,26.74
2023-05-06T00:52:28.687Z,25.81
2023-05-06T00:53:28.695Z,25.72
2023-05-06T00:54:28.717Z,25.83
2023-05-06T00:55:28.662Z,25.63
2023-05-06T00:56:28.667Z,26.33
2023-05-06T00:57:28.653Z,26.82
2023-05-06T00:58:28.639Z,25.28
2023-05-06T00:59:28.651Z,26.04
2023-05-06T01:00:28.633Z,25.75
2023-05-06T01:01:28.635Z,25.38
2023-05-06T01:02:43.328Z,25.97
2023-05-06T01:03:29.869Z,26.06
2023-05-06T01:04:28.593Z,26.12
2023-05-06T01:05:28.568Z,26.27
2023-05-06T01:06:28.601Z,26.03
2023-05-06T01:07:28.584Z,26.33
2023-05-06T01:08:28.586Z,26.26
2023-05-06T01:09:28.541Z,26.11
2023-05-06T01:10:28.622Z,26.50
2023-05-06T01:11:28.540Z,26.23
2023-05-06T01:12:28.548Z,25.81
2023-05-06T01:13:28.794Z,26.60
2023-05-06T01:14:28.517Z,26.74
2023-05-06T01:15:28.533Z,26.47
2023-05-06T01:16:28.558Z,26.20
2023-05-06T01:17:28.548Z,26.33
2023-05-06T01:18:28.512Z,25.53
2023-05-06T01:19:28.553Z,26.05
2023-05-06T01:20:28.527Z,25.47
2023-05-06T01:21:28.590Z,25.41
2023-05-06T01:22:28.594Z,25.72
2023-05-06T01:23:28.672Z,25.74
2023-05-06T01:24:28.626Z,25.75
2023-05-06T01:25:28.710Z,25.00
2023-05-06T01:26:28.707Z,26.07
2023-05-06T01:27:28.760Z,26.69
2023-05-06T01:28:28.790Z,25.87
2023-05-06T01:29:28.808Z,25.68
2023-05-06T01:30:28.812Z,25.80
2023-05-06T01:31:28.878Z,25.76
2023-05-06T01:32:28.950Z,26.51
2023-05-06T01:33:29.321Z,26.06
2023-05-06T01:34:28.967Z,26.82
2023-05-06T01:35:28.987Z,25.11
2023-05-06T01:36:28.984Z,25.68
2023-05-06T01:37:29.029Z,26.17
2023-05-06T01:38:29.299Z,25.37
2023-05-06T01:39:29.108Z,26.27
2023-05-06T01:40:29.133Z,26.60
2023-05-06T01:41:29.132Z,25.16
2023-05-06T01:42:29.289Z,25.59
2023-05-06T01:43:29.237Z,25.92
2023-05-06T01:44:29.287Z,25.00
2023-05-06T01:45:29.326Z,26.21
2023-05-06T01:46:29.356Z,25.95
2023-05-06T01:47:29.383Z,25.95
2023-05-06T01:48:29.378Z,26.37
2023-05-06T01:49:29.417Z,25.61
2023-05-06T01:50:29.454Z,25.72
2023-05-06T01:51:29.488Z,26.05
2023-05-06T01:52:29.528Z,25.14
2023-05-06T01:53:29.584Z,26.10
2023-05-06T01:54:29.605Z,25.64
2023-05-06T01:55:29.675Z,26.25
2023-05-06T01:56:29.666Z,26.46
2023-05-06T01:57:29.700Z,26.10
2023-05-06T01:58:29.799Z,26.33
2023-05-06T01:59:29.793Z,25.90
2023-05-06T02:00:29.806Z,27.04
2023-05-06T02:01:29.884Z,25.60
2023-05-06T02:02:29.995Z,25.29
2023-05-06T02:03:30.000Z,26.27
2023-05-06T02:04:29.990Z,26.81
2023-05-06T02:05:29.966Z,25.49
2023-05-06T02:06:30.022Z,25.38
2023-05-06T02:07:30.061Z,25.72
2023-05-06T02:08:30.092Z,25.88
2023-05-06T02:09:30.131Z,25.91
2023-05-06T02:10:30.167Z,25.47
2023-05-06T02:11:30.253Z,25.88
2023-05-06T02:12:30.249Z,26.07
2023-05-06T02:13:30.302Z,25.30
2023-05-06T02:14:30.419Z,25.74
2023-05-06T02:15:30.367Z,25.81
2023-05-06T02:16:30.397Z,25.56
2023-05-06T02:17:30.442Z,26.22
2023-05-06T02:18:30.487Z,26.31
2023-05-06T02:19:30.547Z,26.78
2023-05-06T02:20:30.523Z,26.62
2023-05-06T02:21:30.623Z,26.71
2023-05-06T02:22:30.632Z,25.22
2023-05-06T02:23:30.707Z,27.17
2023-05-06T02:24:30.694Z,26.42
2023-05-06T02:25:30.734Z,26.55
2023-05-06T02:26:30.776Z,25.89
2023-05-06T02:27:30.826Z,25.03
2023-05-06T02:28:30.843Z,25.55
2023-05-06T02:29:30.895Z,25.59
2023-05-06T02:30:31.025Z,26.33
2023-05-06T02:31:30.983Z,26.21
2023-05-06T02:32:31.023Z,25.75
2023-05-06T02:33:31.355Z,26.21
2023-05-06T02:34:31.070Z,25.82
2023-05-06T02:35:31.108Z,26.34
2023-05-06T02:36:31.168Z,25.48
2023-05-06T02:37:31.243Z,26.53
2023-05-06T02:38:31.234Z,25.34
2023-05-06T02:39:31.253Z,25.10
2023-05-06T02:40:31.281Z,26.50
2023-05-06T02:41:31.306Z,25.90
2023-05-06T02:42:31.394Z,25.41
2023-05-06T02:43:31.393Z,26.71
2023-05-06T02:44:31.430Z,26.28
2023-05-06T02:45:31.530Z,25.79
2023-05-06T02:46:31.611Z,25.21
2023-05-06T02:47:31.603Z,25.87
2023-05-06T02:48:31.821Z,26.70
2023-05-06T02:49:31.644Z,25.79
2023-05-06T02:50:31.678Z,26.68
2023-05-06T02:51:31.714Z,25.72
2023-05-06T02:52:31.735Z,26.18
2023-05-06T02:53:31.786Z,25.75
2023-05-06T02:54:31.869Z,25.41
2023-05-06T02:55:31.891Z,24.90
2023-05-06T02:56:31.890Z,26.24
2023-05-06T02:57:31.966Z,26.20
2023-05-06T02:58:31.994Z,26.07
2023-05-06T02:59:32.026Z,26.12
2023-05-06T03:00:32.117Z,25.57
2023-05-06T03:01:32.197Z,25.58
2023-05-06T03:02:32.355Z,25.61
2023-05-06T03:03:32.337Z,25.40
2023-05-06T03:04:32.262Z,25.92
2023-05-06T03:05:32.291Z,26.37
2023-05-06T03:06:32.324Z,25.92
2023-05-06T03:07:32.361Z,25.26
2023-05-06T03:08:32.409Z,25.67
2023-05-06T03:09:32.433Z,25.77
2023-05-06T03:10:32.446Z,25.30
2023-05-06T03:11:32.489Z,26.57
2023-05-06T03:12:32.580Z,25.36
2023-05-06T03:13:32.558Z,26.06
2023-05-06T03:14:32.565Z,25.10
2023-05-06T03:15:32.611Z,25.53
2023-05-06T03:16:32.729Z,25.92
2023-05-06T03:17:32.711Z,25.42
2023-05-06T03:18:32.781Z,26.11
2023-05-06T03:19:32.782Z,25.98
2023-05-06T03:20:32.785Z,26.50
2023-05-06T03:21:32.841Z,25.61
2023-05-06T03:22:32.864Z,26.24
2023-05-06T03:23:32.935Z,25.88
2023-05-06T03:24:32.936Z,25.82
2023-05-06T03:25:33.034Z,26.13
2023-05-06T03:26:33.111Z,26.95
2023-05-06T03:27:33.109Z,25.85
2023-05-06T03:28:33.202Z,25.25
2023-05-06T03:29:33.236Z,25.06
2023-05-06T03:30:33.247Z,25.66
2023-05-06T03:31:33.333Z,26.31
2023-05-06T03:32:33.381Z,25.85
2023-05-06T03:33:33.390Z,26.93
2023-05-06T03:34:33.468Z,26.41
2023-05-06T03:35:33.494Z,25.39
2023-05-06T03:36:33.525Z,26.05
2023-05-06T03:37:33.588Z,25.89
2023-05-06T03:38:33.648Z,25.70
2023-05-06T03:39:33.621Z,26.08
2023-05-06T03:40:33.718Z,26.53
2023-05-06T03:41:33.730Z,26.34
2023-05-06T03:42:33.783Z,26.52
2023-05-06T03:43:33.870Z,27.00
2023-05-06T03:44:33.894Z,27.21
2023-05-06T03:45:33.942Z,25.62
2023-05-06T03:46:34.012Z,25.31
2023-05-06T03:47:34.064Z,25.50
2023-05-06T03:48:34.018Z,25.20
2023-05-06T03:49:34.115Z,25.45
2023-05-06T03:50:34.152Z,26.38
2023-05-06T03:51:34.196Z,26.48
2023-05-06T03:52:34.196Z,26.51
2023-05-06T03:53:34.270Z,25.74
2023-05-06T03:54:34.281Z,25.37
2023-05-06T03:55:34.333Z,26.29
2023-05-06T03:56:34.403Z,26.76
2023-05-06T03:57:34.455Z,27.03
2023-05-06T03:58:34.544Z,25.37
2023-05-06T03:59:34.560Z,26.84
2023-05-06T04:00:34.591Z,26.02
2023-05-06T04:01:34.604Z,26.33
2023-05-06T04:02:34.762Z,26.02
2023-05-06T04:03:34.884Z,25.82
2023-05-06T04:04:34.809Z,25.85
2023-05-06T04:05:34.874Z,26.92
2023-05-06T04:06:34.967Z,26.14
2023-05-06T04:07:34.897Z,26.46
2023-05-06T04:08:35.335Z,26.20
2023-05-06T04:09:34.979Z,26.89
2023-05-06T04:10:35.018Z,25.68
2023-05-06T04:11:35.062Z,26.32
2023-05-06T04:12:35.169Z,26.45
2023-05-06T04:13:35.166Z,25.56
2023-05-06T04:14:35.200Z,26.76
2023-05-06T04:15:35.214Z,26.19
2023-05-06T04:16:35.292Z,26.27
2023-05-06T04:17:35.361Z,26.81
2023-05-06T04:18:35.407Z,25.54
2023-05-06T04:19:35.399Z,27.02
2023-05-06T04:20:35.419Z,26.09
2023-05-06T04:21:35.502Z,26.31
2023-05-06T04:22:35.665Z,26.93
2023-05-06T04:23:35.620Z,26.45
2023-05-06T04:24:35.635Z,25.46
2023-05-06T04:25:35.707Z,25.78
2023-05-06T04:26:35.746Z,25.80
2023-05-06T04:27:35.784Z,25.60
2023-05-06T04:28:35.841Z,26.61
2023-05-06T04:29:35.858Z,26.14
2023-05-06T04:30:35.950Z,26.13
2023-05-06T04:31:36.067Z,26.65
2023-05-06T04:32:36.109Z,25.92
2023-05-06T04:33:36.071Z,25.58
2023-05-06T04:34:36.127Z,25.60
2023-05-06T04:35:36.162Z,25.80
2023-05-06T04:36:36.534Z,25.48
2023-05-06T04:37:36.220Z,26.27
2023-05-06T04:38:36.341Z,26.72
2023-05-06T04:39:36.293Z,26.34
2023-05-06T04:40:36.366Z,26.85
2023-05-06T04:41:36.433Z,26.06
2023-05-06T04:42:36.475Z,27.10
2023-05-06T04:43:36.513Z,26.73
2023-05-06T04:44:36.554Z,26.88
2023-05-06T04:45:36.691Z,26.71
2023-05-06T04:46:36.687Z,26.22
2023-05-06T04:47:36.762Z,27.37
2023-05-06T04:48:36.746Z,26.38
2023-05-06T04:49:36.782Z,26.66
2023-05-06T04:50:36.828Z,28.30
2023-05-06T04:51:36.886Z,27.98
2023-05-06T04:52:36.970Z,27.13
2023-05-06T04:53:37.003Z,26.48
2023-05-06T04:54:37.094Z,27.66
2023-05-06T04:55:37.129Z,26.80
2023-05-06T04:56:37.115Z,27.84
2023-05-06T04:57:37.176Z,26.78
2023-05-06T04:58:37.232Z,26.90
2023-05-06T04:59:37.267Z,27.08
2023-05-06T05:00:37.343Z,27.33
2023-05-06T05:01:37.446Z,26.94
2023-05-06T05:02:37.524Z,26.55
2023-05-06T05:03:37.568Z,26.54
2023-05-06T05:04:37.531Z,26.91
2023-05-06T05:05:37.623Z,28.33
2023-05-06T05:06:37.705Z,28.13
2023-05-06T05:07:37.711Z,27.16
2023-05-06T05:08:37.782Z,27.69
2023-05-06T05:09:37.816Z,28.20
2023-05-06T05:10:37.966Z,28.26
2023-05-06T05:11:37.909Z,27.94
2023-05-06T05:12:38.045Z,27.31
2023-05-06T05:13:38.066Z,28.18
2023-05-06T05:14:38.058Z,27.46
2023-05-06T05:15:38.145Z,27.34
2023-05-06T05:16:38.252Z,27.53
2023-05-06T05:17:38.265Z,27.24
2023-05-06T05:18:38.262Z,28.17
2023-05-06T05:19:38.352Z,27.51
2023-05-06T05:20:38.373Z,27.08
2023-05-06T05:21:38.392Z,27.29
2023-05-06T05:22:38.526Z,28.57
2023-05-06T05:23:38.535Z,27.52
2023-05-06T05:24:38.550Z,28.89
2023-05-06T05:25:38.595Z,28.78
2023-05-06T05:26:38.641Z,27.53
2023-05-06T05:27:38.677Z,28.12
2023-05-06T05:28:38.894Z,28.19
2023-05-06T05:29:38.774Z,28.08
2023-05-06T05:30:38.816Z,28.96
2023-05-06T05:31:38.899Z,29.03
2023-05-06T05:32:38.927Z,28.98
2023-05-06T05:33:39.004Z,26.69
2023-05-06T05:34:39.018Z,28.05
2023-05-06T05:35:39.089Z,27.70
2023-05-06T05:36:39.135Z,28.00
2023-05-06T05:37:39.156Z,27.37
2023-05-06T05:38:39.203Z,27.41
2023-05-06T05:39:39.269Z,27.75
2023-05-06T05:40:39.350Z,28.55
2023-05-06T05:41:39.333Z,27.98
2023-05-06T05:42:39.495Z,27.13
2023-05-06T05:43:39.462Z,28.63
2023-05-06T05:44:39.517Z,27.03
2023-05-06T05:45:39.566Z,27.26
2023-05-06T05:46:39.711Z,27.41
2023-05-06T05:47:39.702Z,28.37
2023-05-06T05:48:39.731Z,29.44
2023-05-06T05:49:39.741Z,29.59
2023-05-06T05:50:39.817Z,28.17
2023-05-06T05:51:39.826Z,27.47
2023-05-06T05:52:39.920Z,29.15
2023-05-06T05:53:39.967Z,27.86
2023-05-06T05:54:39.994Z,26.57
2023-05-06T05:55:40.070Z,26.21
2023-05-06T05:56:40.114Z,27.17
2023-05-06T05:57:40.189Z,27.26
2023-05-06T05:58:40.268Z,28.29
2023-05-06T05:59:40.287Z,27.59
2023-05-06T06:00:40.327Z,27.52
2023-05-06T06:01:40.383Z,27.11
2023-05-06T06:02:40.538Z,28.00
2023-05-06T06:03:40.546Z,27.63
2023-05-06T06:04:40.589Z,27.39
2023-05-06T06:05:40.559Z,27.11
2023-05-06T06:06:40.627Z,27.43
2023-05-06T06:07:40.723Z,27.38
2023-05-06T06:08:40.762Z,28.05
2023-05-06T06:09:40.788Z,27.64
2023-05-06T06:10:40.878Z,27.24
2023-05-06T06:11:40.905Z,27.86
2023-05-06T06:12:40.992Z,26.26
2023-05-06T06:13:41.018Z,26.34
2023-05-06T06:14:41.114Z,26.57
2023-05-06T06:15:41.103Z,27.19
2023-05-06T06:16:41.283Z,25.98
2023-05-06T06:17:41.256Z,26.59
2023-05-06T06:18:41.239Z,27.20
2023-05-06T06:19:41.884Z,27.00
2023-05-06T06:20:41.352Z,26.88
2023-05-06T06:21:41.387Z,27.34
2023-05-06T06:22:41.510Z,28.17
2023-05-06T06:23:41.484Z,27.05
2023-05-06T06:24:41.541Z,27.51
2023-05-06T06:25:41.630Z,27.67
2023-05-06T06:26:41.629Z,27.86
2023-05-06T06:27:41.714Z,26.09
2023-05-06T06:28:41.782Z,26.48
2023-05-06T06:29:41.766Z,26.35
2023-05-06T06:30:41.908Z,26.37
2023-05-06T06:31:41.956Z,27.42
2023-05-06T06:32:41.963Z,27.55
2023-05-06T06:33:42.070Z,27.29
2023-05-06T06:34:42.033Z,27.34
2023-05-06T06:35:42.165Z,27.48
2023-05-06T06:36:42.151Z,27.10
2023-05-06T06:37:42.227Z,26.80
2023-05-06T06:38:42.275Z,26.95
2023-05-06T06:39:42.344Z,25.73
2023-05-06T06:40:42.375Z,26.84
2023-05-06T06:41:42.425Z,27.84
2023-05-06T06:42:42.510Z,27.11
2023-05-06T06:43:42.561Z,27.30
2023-05-06T06:44:42.611Z,27.83
2023-05-06T06:45:42.715Z,28.39
2023-05-06T06:46:42.783Z,26.31
2023-05-06T06:47:42.801Z,27.71
2023-05-06T06:48:42.918Z,28.35
2023-05-06T06:49:42.936Z,26.90
2023-05-06T06:50:42.971Z,28.25
2023-05-06T06:51:42.983Z,28.31
2023-05-06T06:52:43.041Z,26.93
2023-05-06T06:53:43.106Z,27.17
2023-05-06T06:54:43.154Z,27.32
2023-05-06T06:55:43.212Z,27.95
2023-05-06T06:56:43.261Z,27.22
2023-05-06T06:57:43.285Z,27.88
2023-05-06T06:58:43.360Z,27.15
2023-05-06T06:59:43.422Z,27.19
2023-05-06T07:00:43.489Z,27.17
2023-05-06T07:01:44.550Z,27.27
2023-05-06T07:02:43.640Z,28.70
2023-05-06T07:03:43.692Z,28.78
2023-05-06T07:04:43.784Z,27.41
2023-05-06T07:05:43.746Z,28.86
2023-05-06T07:06:43.769Z,27.41
2023-05-06T07:07:43.821Z,27.64
2023-05-06T07:08:43.871Z,27.89
2023-05-06T07:09:43.871Z,28.86
2023-05-06T07:10:43.963Z,28.09
2023-05-06T07:11:43.956Z,27.83
2023-05-06T07:12:44.132Z,27.80
2023-05-06T07:13:44.098Z,26.96
2023-05-06T07:14:44.132Z,27.54
2023-05-06T07:15:44.180Z,27.36
2023-05-06T07:16:46.359Z,26.80
2023-05-06T07:17:44.287Z,27.78
2023-05-06T07:18:44.216Z,28.39
2023-05-06T07:19:44.207Z,27.70
2023-05-06T07:20:44.224Z,28.89
2023-05-06T07:21:44.172Z,27.97
2023-05-06T07:22:44.196Z,28.77
2023-05-06T07:23:44.155Z,28.67
2023-05-06T07:24:44.202Z,27.73
2023-05-06T07:25:44.159Z,27.46
2023-05-06T07:26:44.154Z,27.81
2023-05-06T07:27:44.173Z,27.23
2023-05-06T07:28:44.132Z,28.06
2023-05-06T07:29:44.133Z,28.06
2023-05-06T07:30:44.202Z,28.85
2023-05-06T07:31:44.125Z,28.37
2023-05-06T07:32:44.121Z,28.24
2023-05-06T07:33:44.161Z,28.27
2023-05-06T07:34:44.103Z,27.68
2023-05-06T07:35:44.072Z,28.20
2023-05-06T07:36:44.047Z,28.20
2023-05-06T07:37:44.110Z,28.14
2023-05-06T07:38:44.095Z,28.82
2023-05-06T07:39:44.063Z,28.82
2023-05-06T07:40:44.079Z,27.94
2023-05-06T07:41:44.037Z,27.26
2023-05-06T07:42:44.060Z,27.84
2023-05-06T07:43:44.104Z,27.42
2023-05-06T07:44:44.042Z,26.51
2023-05-06T07:45:44.052Z,27.20
2023-05-06T07:46:44.057Z,26.60
2023-05-06T07:47:44.051Z,26.10
2023-05-06T07:48:43.999Z,25.53
2023-05-06T07:49:43.979Z,27.07
2023-05-06T07:50:43.983Z,26.17
2023-05-06T07:51:43.995Z,25.58
2023-05-06T07:52:43.964Z,26.71
2023-05-06T07:53:43.937Z,27.40
2023-05-06T07:54:43.947Z,26.82
2023-05-06T07:55:43.920Z,26.18
2023-05-06T07:56:43.932Z,25.53
2023-05-06T07:57:43.930Z,25.98
2023-05-06T07:58:43.949Z,26.58
2023-05-06T07:59:43.938Z,26.18
2023-05-06T08:00:43.887Z,25.77
2023-05-06T08:01:43.894Z,26.06
2023-05-06T08:02:44.126Z,26.17
2023-05-06T08:03:44.135Z,25.52
2023-05-06T08:04:43.976Z,25.96
2023-05-06T08:05:43.968Z,26.02
2023-05-06T08:06:43.898Z,27.11
2023-05-06T08:07:43.939Z,25.67
2023-05-06T08:08:43.952Z,25.76
2023-05-06T08:09:44.001Z,26.29
2023-05-06T08:10:44.023Z,26.72
2023-05-06T08:11:44.073Z,26.85
2023-05-06T08:12:44.170Z,26.50
2023-05-06T08:13:44.166Z,25.16
2023-05-06T08:14:44.206Z,26.84
2023-05-06T08:15:44.245Z,26.43
2023-05-06T08:16:44.391Z,27.54
2023-05-06T08:17:44.319Z,27.60
2023-05-06T08:18:44.374Z,27.59
2023-05-06T08:19:44.395Z,26.52
2023-05-06T08:20:44.461Z,27.94
2023-05-06T08:21:44.550Z,27.37
2023-05-06T08:22:44.564Z,28.05
2023-05-06T08:23:44.634Z,27.51
2023-05-06T08:24:44.602Z,26.68
2023-05-06T08:25:44.637Z,27.62
2023-05-06T08:26:44.697Z,27.23
2023-05-06T08:27:45.415Z,27.42
2023-05-06T08:28:44.774Z,28.23
2023-05-06T08:29:44.820Z,27.97
2023-05-06T08:30:45.492Z,27.87
2023-05-06T08:31:44.934Z,26.94
2023-05-06T08:32:44.984Z,27.53
2023-05-06T08:33:45.003Z,26.45
2023-05-06T08:34:44.977Z,27.26
2023-05-06T08:35:45.073Z,27.71
2023-05-06T08:36:45.106Z,27.31
2023-05-06T08:37:45.268Z,27.65
2023-05-06T08:38:45.227Z,28.21
2023-05-06T08:39:45.194Z,28.15
2023-05-06T08:40:45.209Z,28.93
2023-05-06T08:41:45.381Z,28.56
2023-05-06T08:42:45.284Z,27.22
2023-05-06T08:43:45.389Z,29.80
2023-05-06T08:44:45.354Z,28.17
2023-05-06T08:45:45.429Z,28.12
2023-05-06T08:46:45.474Z,29.34
2023-05-06T08:47:45.522Z,27.96
2023-05-06T08:48:45.549Z,26.69
2023-05-06T08:49:45.569Z,27.60
2023-05-06T08:50:45.635Z,28.02
2023-05-06T08:51:45.675Z,28.38
2023-05-06T08:52:45.680Z,28.96
2023-05-06T08:53:45.761Z,29.84
2023-05-06T08:54:45.740Z,29.48
2023-05-06T08:55:45.776Z,30.13
2023-05-06T08:56:45.817Z,29.03
2023-05-06T08:57:45.824Z,28.83
2023-05-06T08:58:45.885Z,29.17
2023-05-06T08:59:45.892Z,29.77
2023-05-06T09:00:46.973Z,29.04
2023-05-06T09:01:45.968Z,31.26
2023-05-06T09:02:46.078Z,29.45
2023-05-06T09:03:46.073Z,29.34
2023-05-06T09:04:46.072Z,29.23
2023-05-06T09:05:46.074Z,30.14
2023-05-06T09:06:46.107Z,29.70
2023-05-06T09:07:46.171Z,29.30
2023-05-06T09:08:46.204Z,31.25
2023-05-06T09:09:46.289Z,29.28
2023-05-06T09:10:46.306Z,30.17
2023-05-06T09:11:46.297Z,30.31
2023-05-06T09:12:46.340Z,29.71
2023-05-06T09:13:46.376Z,28.95
2023-05-06T09:14:46.459Z,28.51
2023-05-06T09:15:46.429Z,28.88
2023-05-06T09:16:46.479Z,29.13
2023-05-06T09:17:46.478Z,30.46
2023-05-06T09:18:46.476Z,29.14
2023-05-06T09:19:46.547Z,28.89
2023-05-06T09:20:46.556Z,29.85
2023-05-06T09:21:46.592Z,30.88
2023-05-06T09:22:46.618Z,30.42
2023-05-06T09:23:46.652Z,29.32
2023-05-06T09:24:46.688Z,29.12
2023-05-06T09:25:46.794Z,30.53
2023-05-06T09:26:46.782Z,29.43
2023-05-06T09:27:46.812Z,30.05
2023-05-06T09:28:46.824Z,28.84
2023-05-06T09:29:46.860Z,30.10
2023-05-06T09:30:46.912Z,30.86
2023-05-06T09:31:46.929Z,30.76
2023-05-06T09:32:46.951Z,31.50
2023-05-06T09:33:46.989Z,29.54
2023-05-06T09:34:47.032Z,28.81
2023-05-06T09:35:47.027Z,29.71
2023-05-06T09:36:47.151Z,30.05
2023-05-06T09:37:47.144Z,29.51
2023-05-06T09:38:47.161Z,30.92
2023-05-06T09:39:47.243Z,29.29
2023-05-06T09:40:47.246Z,28.78
2023-05-06T09:41:47.290Z,31.09
2023-05-06T09:42:47.298Z,30.10
2023-05-06T09:43:47.316Z,30.03
2023-05-06T09:44:47.362Z,31.25
2023-05-06T09:45:47.435Z,30.49
2023-05-06T09:46:47.453Z,30.39
2023-05-06T09:47:47.560Z,30.22
2023-05-06T09:48:47.531Z,30.61
2023-05-06T09:49:47.567Z,30.65
2023-05-06T09:50:47.601Z,30.95
2023-05-06T09:51:47.626Z,30.71
2023-05-06T09:52:47.657Z,31.05
2023-05-06T09:53:47.714Z,30.55
2023-05-06T09:54:47.749Z,29.67
2023-05-06T09:55:47.780Z,29.68
2023-05-06T09:56:47.875Z,30.22
2023-05-06T09:57:47.856Z,29.59
2023-05-06T09:58:47.884Z,29.79
2023-05-06T09:59:47.871Z,30.00
2023-05-06T10:00:47.957Z,30.63
2023-05-06T10:01:48.006Z,29.61
2023-05-06T10:02:48.132Z,30.39
2023-05-06T10:03:48.162Z,29.57
2023-05-06T10:04:48.287Z,30.52
2023-05-06T10:05:48.053Z,28.89
2023-05-06T10:06:48.108Z,30.02
2023-05-06T10:07:48.111Z,29.08
2023-05-06T10:08:48.158Z,30.43
2023-05-06T10:09:48.196Z,29.69
2023-05-06T10:10:48.184Z,29.92
2023-05-06T10:11:48.204Z,29.61
2023-05-06T10:12:48.298Z,29.79
2023-05-06T10:13:48.293Z,29.22
2023-05-06T10:14:48.349Z,29.35
2023-05-06T10:15:48.393Z,30.39
2023-05-06T10:16:48.374Z,30.40
2023-05-06T10:17:48.476Z,29.36
2023-05-06T10:18:48.442Z,30.61
2023-05-06T10:19:48.581Z,30.66
2023-05-06T10:20:48.512Z,29.57
2023-05-06T10:21:48.518Z,30.29
2023-05-06T10:22:48.574Z,29.37
2023-05-06T10:23:48.543Z,29.74
2023-05-06T10:24:48.606Z,29.14
2023-05-06T10:25:48.644Z,31.08
2023-05-06T10:26:48.651Z,30.93
2023-05-06T10:27:48.687Z,30.39
2023-05-06T10:28:48.722Z,31.24
2023-05-06T10:29:48.859Z,30.22
2023-05-06T10:30:48.731Z,30.69
2023-05-06T10:31:48.842Z,30.66
2023-05-06T10:32:48.799Z,29.50
2023-05-06T10:33:48.773Z,30.14
2023-05-06T10:34:48.775Z,30.50
2023-05-06T10:35:48.861Z,30.59
2023-05-06T10:36:48.813Z,31.20
2023-05-06T10:37:48.868Z,31.11
2023-05-06T10:38:48.875Z,29.99
2023-05-06T10:39:49.473Z,30.52
2023-05-06T10:40:48.905Z,30.21
2023-05-06T10:41:49.505Z,30.72
2023-05-06T10:42:48.972Z,30.95
2023-05-06T10:43:48.934Z,30.58
2023-05-06T10:44:48.954Z,30.79
2023-05-06T10:45:49.137Z,30.31
2023-05-06T10:46:49.009Z,31.70
2023-05-06T10:47:49.058Z,30.68
2023-05-06T10:48:49.063Z,30.43
2023-05-06T10:49:49.069Z,30.51
2023-05-06T10:50:49.082Z,31.56
2023-05-06T10:51:49.087Z,30.50
2023-05-06T10:52:49.072Z,30.32
2023-05-06T10:53:49.092Z,30.58
2023-05-06T10:54:49.133Z,31.07
2023-05-06T10:55:49.133Z,29.65
2023-05-06T10:56:49.148Z,31.14
2023-05-06T10:57:49.146Z,29.28
2023-05-06T10:58:49.147Z,29.50
2023-05-06T10:59:49.199Z,30.90
2023-05-06T11:00:49.229Z,30.50
2023-05-06T11:01:49.284Z,30.44
2023-05-06T11:02:49.252Z,31.72
2023-05-06T11:03:49.401Z,30.53
2023-05-06T11:04:49.276Z,29.30
2023-05-06T11:05:49.336Z,31.16
2023-05-06T11:06:49.333Z,30.47
2023-05-06T11:07:49.355Z,28.72
2023-05-06T11:08:49.390Z,27.93
2023-05-06T11:09:49.396Z,30.35
2023-05-06T11:10:49.406Z,30.20
2023-05-06T11:11:49.425Z,29.59
2023-05-06T11:12:49.780Z,28.64
2023-05-06T11:13:50.652Z,28.79
2023-05-06T11:14:49.475Z,29.23
2023-05-06T11:15:49.465Z,28.45
2023-05-06T11:16:49.556Z,29.39
2023-05-06T11:17:49.664Z,29.98
2023-05-06T11:18:49.558Z,29.10
2023-05-06T11:19:49.583Z,28.96
2023-05-06T11:20:49.574Z,27.47
2023-05-06T11:21:50.726Z,27.80
2023-05-06T11:22:49.622Z,28.63
2023-05-06T11:23:49.721Z,28.17
2023-05-06T11:24:49.639Z,29.31
2023-05-06T11:25:49.651Z,27.20
2023-05-06T11:26:49.693Z,28.61
2023-05-06T11:27:50.925Z,29.41
2023-05-06T11:28:49.738Z,28.44
2023-05-06T11:29:49.742Z,28.57
2023-05-06T11:30:49.751Z,28.08
2023-05-06T11:31:49.770Z,28.20
2023-05-06T11:32:49.806Z,28.63
2023-05-06T11:33:49.904Z,28.27
2023-05-06T11:34:49.814Z,29.14
2023-05-06T11:35:49.818Z,28.13
2023-05-06T11:36:49.835Z,27.90
2023-05-06T11:37:49.897Z,27.65
2023-05-06T11:38:49.873Z,27.50
2023-05-06T11:39:49.882Z,28.09
2023-05-06T11:40:49.875Z,28.10
2023-05-06T11:41:49.886Z,27.09
2023-05-06T11:42:49.940Z,26.74
2023-05-06T11:43:50.059Z,28.11
2023-05-06T11:44:49.955Z,28.04
2023-05-06T11:45:49.964Z,27.53
2023-05-06T11:46:50.098Z,27.80
2023-05-06T11:47:50.031Z,26.72
2023-05-06T11:48:50.032Z,27.51
2023-05-06T11:49:50.132Z,26.93
2023-05-06T11:50:50.067Z,28.05
2023-05-06T11:51:50.087Z,29.27
2023-05-06T11:52:50.093Z,27.18
2023-05-06T11:53:50.106Z,26.99
2023-05-06T11:54:50.272Z,27.10
2023-05-06T11:55:50.123Z,27.28
2023-05-06T11:56:50.140Z,27.91
2023-05-06T11:57:50.123Z,27.54
2023-05-06T11:58:50.132Z,26.50
2023-05-06T11:59:50.190Z,28.63
2023-05-06T12:00:51.312Z,27.52
2023-05-06T12:01:50.186Z,28.41
2023-05-06T12:02:50.308Z,28.04
2023-05-06T12:03:50.329Z,29.42
2023-05-06T12:04:50.301Z,27.68
2023-05-06T12:05:50.266Z,28.77
2023-05-06T12:06:50.241Z,29.53
2023-05-06T12:07:50.293Z,29.03
2023-05-06T12:08:50.508Z,30.20
2023-05-06T12:09:50.320Z,28.08
2023-05-06T12:10:50.319Z,29.63
2023-05-06T12:11:50.312Z,29.19
2023-05-06T12:12:50.361Z,27.92
2023-05-06T12:13:50.333Z,28.63
2023-05-06T12:14:50.359Z,28.39
2023-05-06T12:15:50.449Z,29.51
2023-05-06T12:16:50.413Z,28.18
2023-05-06T12:17:50.419Z,29.37
2023-05-06T12:18:50.407Z,29.29
2023-05-06T12:19:50.367Z,28.86
2023-05-06T12:20:50.437Z,28.17
2023-05-06T12:21:50.490Z,27.63
2023-05-06T12:22:50.456Z,30.02
2023-05-06T12:23:50.496Z,30.10
2023-05-06T12:24:50.544Z,28.36
2023-05-06T12:25:50.471Z,27.47
2023-05-06T12:26:50.475Z,28.86
2023-05-06T12:27:50.470Z,29.20
2023-05-06T12:28:50.484Z,27.34
2023-05-06T12:29:50.494Z,29.18
2023-05-06T12:30:50.560Z,28.46
2023-05-06T12:31:50.555Z,27.96
2023-05-06T12:32:50.523Z,26.77
2023-05-06T12:33:50.716Z,28.02
2023-05-06T12:34:50.553Z,29.46
2023-05-06T12:35:50.542Z,28.72
2023-05-06T12:36:50.575Z,28.75
2023-05-06T12:37:50.639Z,29.58
2023-05-06T12:38:50.625Z,29.24
2023-05-06T12:39:50.584Z,29.36
2023-05-06T12:40:50.617Z,30.06
2023-05-06T12:41:50.628Z,28.41
2023-05-06T12:42:50.629Z,28.76
2023-05-06T12:43:50.660Z,29.44
2023-05-06T12:44:50.669Z,27.67
2023-05-06T12:45:50.691Z,29.01
2023-05-06T12:46:50.666Z,27.56
2023-05-06T12:47:50.700Z,30.06
2023-05-06T12:48:51.030Z,28.85
2023-05-06T12:49:50.730Z,28.72
2023-05-06T12:50:50.691Z,30.28
2023-05-06T12:51:50.736Z,28.41
2023-05-06T12:52:50.749Z,29.08